LGAV/ATH METAR and TAF weather

Enter ICAO airport designator
Station Type Date Time Source
LGAV METAR 2019/06/18 04:20 UTC NOAA

LGAV 180420Z 01005KT 280V060 9999 FEW030 27/15 Q1012 NOSIG


Station Type Date Time Source
LGAV Decoded METAR 2019/06/18 04:20 UTC NOAA

Athens Eleftherios Venizelos International Airport, Greece (LGAV) 37-56N 023-56E
Jun 18, 2019 - 12:20 AM EDT / 2019.06.18 0420 UTC
Wind: from the N (010 degrees) at 6 MPH (5 KT) (direction variable):0
Visibility: greater than 7 mile(s):0
Sky conditions: mostly clear
Temperature: 80 F (27 C)
Dew Point: 59 F (15 C)
Relative Humidity: 47%
Pressure (altimeter): 29.88 in. Hg (1012 hPa)
ob: LGAV 180420Z 01005KT 280V060 9999 FEW030 27/15 Q1012 NOSIG
cycle: 4

Station Type Date Time Source
LGAV TAF 2019/06/17 18:12 UTC NOAA

TAF TAF LGAV 171700Z 1718/1818 06012KT 9999 FEW020
BECMG 1719/1721 32010KT
BECMG 1806/1808 02012KT PROB30
TEMPO 1810/1816 5000 TSRA FEW018CB SCT020 BKN070

Example: see airport list